createdAt,value
2022-10-12T00:01:05.673Z,84.91
2022-10-12T00:03:34.063Z,84.97
2022-10-12T00:06:10.226Z,85.02
2022-10-12T00:08:40.155Z,85.75
2022-10-12T00:11:11.459Z,85.70
2022-10-12T00:13:38.422Z,85.89
2022-10-12T00:16:08.149Z,86.62
2022-10-12T00:18:36.455Z,86.05
2022-10-12T00:21:05.783Z,86.69
2022-10-12T00:23:33.705Z,86.25
2022-10-12T00:26:11.950Z,86.89
2022-10-12T00:28:39.372Z,86.92
2022-10-12T00:31:13.080Z,87.55
2022-10-12T00:33:40.739Z,87.25
2022-10-12T00:36:16.637Z,86.61
2022-10-12T00:38:44.732Z,86.68
2022-10-12T00:41:13.289Z,87.54
2022-10-12T00:43:43.638Z,88.14
2022-10-12T00:46:25.217Z,88.22
2022-10-12T00:49:05.490Z,88.23
2022-10-12T00:51:32.822Z,87.29
2022-10-12T00:54:05.965Z,87.64
2022-10-12T00:56:37.265Z,87.71
2022-10-12T00:59:10.801Z,88.72
2022-10-12T01:01:38.456Z,88.34
2022-10-12T01:04:06.832Z,88.53
2022-10-12T01:06:34.721Z,88.57
2022-10-12T01:09:03.047Z,88.09
2022-10-12T01:11:30.012Z,88.24
2022-10-12T01:13:57.984Z,88.47
2022-10-12T01:16:32.920Z,88.38
2022-10-12T01:19:57.410Z,88.16
2022-10-12T01:22:24.775Z,87.86
2022-10-12T01:25:40.164Z,87.46
2022-10-12T01:28:49.182Z,87.94
2022-10-12T01:31:38.076Z,87.22
2022-10-12T01:34:27.300Z,88.36
2022-10-12T01:37:11.151Z,88.22
2022-10-12T01:39:52.689Z,88.21
2022-10-12T01:42:40.663Z,87.65
2022-10-12T01:45:12.619Z,87.24
2022-10-12T01:47:41.433Z,87.30
2022-10-12T01:50:12.847Z,88.22
2022-10-12T01:53:06.030Z,89.17
2022-10-12T01:56:05.557Z,89.06
2022-10-12T01:58:45.188Z,88.97
2022-10-12T02:01:30.019Z,89.67
2022-10-12T02:04:10.087Z,89.98
2022-10-12T02:07:01.882Z,90.13
2022-10-12T02:09:34.060Z,89.88
2022-10-12T02:12:08.489Z,89.79
2022-10-12T02:14:42.195Z,89.61
2022-10-12T02:17:14.526Z,90.25
2022-10-12T02:19:53.432Z,89.80
2022-10-12T02:22:20.690Z,90.54
2022-10-12T02:24:51.976Z,90.75
2022-10-12T02:27:21.291Z,90.54
2022-10-12T02:29:48.824Z,90.99
2022-10-12T02:32:29.199Z,91.28
2022-10-12T02:35:29.089Z,91.02
2022-10-12T02:38:12.014Z,91.18
2022-10-12T02:40:55.458Z,91.29
2022-10-12T02:43:33.000Z,91.38
2022-10-12T02:46:01.624Z,91.22
2022-10-12T02:48:30.079Z,91.75
2022-10-12T02:50:59.062Z,91.75
2022-10-12T02:53:29.922Z,91.92
2022-10-12T02:56:12.647Z,92.30
2022-10-12T02:58:41.409Z,92.08
2022-10-12T03:01:08.381Z,92.13
2022-10-12T03:03:35.372Z,92.10
2022-10-12T03:06:02.493Z,91.27
2022-10-12T03:08:29.543Z,91.60
2022-10-12T03:11:12.642Z,91.93
2022-10-12T03:13:39.553Z,91.35
2022-10-12T03:16:10.401Z,91.51
2022-10-12T03:18:38.392Z,91.31
2022-10-12T03:21:05.950Z,92.05
2022-10-12T03:23:32.963Z,91.82
2022-10-12T03:25:59.999Z,91.77
2022-10-12T03:28:27.029Z,92.03
2022-10-12T03:30:53.978Z,92.36
2022-10-12T03:33:21.027Z,92.09
2022-10-12T03:35:48.554Z,92.18
2022-10-12T03:38:16.703Z,92.62
2022-10-12T03:40:45.055Z,93.04
2022-10-12T03:43:12.604Z,92.90
2022-10-12T03:45:39.703Z,92.69
2022-10-12T03:48:07.648Z,92.04
2022-10-12T03:50:35.975Z,92.00
2022-10-12T03:53:04.967Z,92.53
2022-10-12T03:55:33.423Z,92.78
2022-10-12T03:58:00.512Z,92.12
2022-10-12T04:00:28.750Z,92.34
2022-10-12T04:02:55.776Z,92.72
2022-10-12T04:05:23.333Z,92.81
2022-10-12T04:07:50.668Z,92.59
2022-10-12T04:10:17.826Z,93.10
2022-10-12T04:12:45.560Z,92.85
2022-10-12T04:15:13.038Z,92.48
2022-10-12T04:17:41.132Z,92.54
2022-10-12T04:20:10.942Z,92.18
2022-10-12T04:22:39.005Z,92.68
2022-10-12T04:25:06.876Z,92.67
2022-10-12T04:27:34.152Z,93.15
2022-10-12T04:30:01.096Z,92.81
2022-10-12T04:32:28.073Z,93.00
2022-10-12T04:34:55.061Z,92.40
2022-10-12T04:37:21.976Z,92.28
2022-10-12T04:39:48.858Z,93.05
2022-10-12T04:42:15.760Z,92.80
2022-10-12T04:44:42.669Z,92.66
2022-10-12T04:47:09.618Z,92.84
2022-10-12T04:49:36.601Z,92.31
2022-10-12T04:52:03.575Z,91.98
2022-10-12T04:54:32.753Z,92.12
2022-10-12T04:56:59.695Z,91.97
2022-10-12T04:59:26.716Z,92.26
2022-10-12T05:01:54.505Z,92.15
2022-10-12T05:04:21.770Z,91.68
2022-10-12T05:06:48.712Z,91.24
2022-10-12T05:09:17.179Z,91.18
2022-10-12T05:11:44.682Z,90.48
2022-10-12T05:14:11.812Z,88.06
2022-10-12T05:16:38.761Z,85.48
2022-10-12T05:19:05.749Z,83.09
2022-10-12T05:21:33.656Z,79.36
2022-10-12T05:24:00.640Z,75.95
2022-10-12T05:26:27.699Z,73.90
2022-10-12T05:28:54.709Z,72.02
2022-10-12T05:31:21.703Z,73.70
2022-10-12T05:33:48.622Z,76.79
2022-10-12T05:36:15.766Z,78.73
2022-10-12T05:38:42.815Z,80.12
2022-10-12T05:41:09.958Z,80.24
2022-10-12T05:43:36.878Z,79.88
2022-10-12T05:46:04.671Z,80.62
2022-10-12T05:48:31.707Z,80.86
2022-10-12T05:50:58.667Z,81.25
2022-10-12T05:53:25.729Z,81.21
2022-10-12T05:56:00.782Z,80.70
2022-10-12T05:58:30.418Z,80.78
2022-10-12T06:01:07.590Z,81.44
2022-10-12T06:03:35.326Z,80.67
2022-10-12T06:06:03.508Z,81.42
2022-10-12T06:08:31.583Z,80.86
2022-10-12T06:10:58.561Z,80.50
2022-10-12T06:13:26.051Z,80.54
2022-10-12T06:15:53.479Z,81.47
2022-10-12T06:18:21.096Z,81.47
2022-10-12T06:21:08.819Z,80.98
2022-10-12T06:23:39.226Z,80.80
2022-10-12T06:26:06.575Z,81.42
2022-10-12T06:28:33.629Z,80.90
2022-10-12T06:31:01.015Z,80.56
2022-10-12T06:33:28.342Z,78.13
2022-10-12T06:35:56.104Z,69.17
2022-10-12T06:38:23.789Z,60.14
2022-10-12T06:40:50.778Z,54.48
2022-10-12T06:43:17.711Z,50.31
2022-10-12T06:45:44.663Z,48.29
2022-10-12T06:48:16.180Z,46.69
2022-10-12T06:50:46.273Z,44.92
2022-10-12T06:53:13.176Z,43.77
2022-10-12T06:55:40.900Z,42.50
2022-10-12T06:58:08.006Z,42.57
2022-10-12T07:00:35.114Z,41.48
2022-10-12T07:03:02.045Z,39.87
2022-10-12T07:05:29.404Z,38.46
2022-10-12T07:07:56.667Z,37.92
2022-10-12T07:10:25.007Z,37.83
2022-10-12T07:12:51.987Z,36.66
2022-10-12T07:15:19.436Z,36.48
2022-10-12T07:17:46.452Z,35.72
2022-10-12T07:20:13.610Z,34.75
2022-10-12T07:22:40.544Z,34.76
2022-10-12T07:25:08.021Z,34.19
2022-10-12T07:27:35.191Z,34.80
2022-10-12T07:30:02.852Z,34.10
2022-10-12T07:32:29.759Z,34.67
2022-10-12T07:34:57.059Z,34.13
2022-10-12T07:37:23.969Z,34.40
2022-10-12T07:39:50.918Z,35.03
2022-10-12T07:42:19.476Z,34.55
2022-10-12T07:44:46.647Z,35.43
2022-10-12T07:47:13.602Z,35.89
2022-10-12T07:49:40.559Z,36.00
2022-10-12T07:52:07.451Z,35.90
2022-10-12T07:54:34.393Z,37.22
2022-10-12T07:57:01.324Z,37.66
2022-10-12T07:59:28.464Z,37.68
2022-10-12T08:01:55.516Z,36.90
2022-10-12T08:04:22.514Z,36.17
2022-10-12T08:06:49.529Z,36.05
2022-10-12T08:09:16.476Z,36.52
2022-10-12T08:11:43.574Z,35.81
2022-10-12T08:14:17.037Z,37.50
2022-10-12T08:16:44.954Z,36.37
2022-10-12T08:19:12.674Z,35.40
2022-10-12T08:21:41.479Z,34.48
2022-10-12T08:24:10.067Z,34.13
2022-10-12T08:26:37.079Z,34.23
2022-10-12T08:29:06.088Z,33.83
2022-10-12T08:31:33.108Z,33.19
2022-10-12T08:34:00.831Z,33.20
2022-10-12T08:36:28.067Z,33.02
2022-10-12T08:38:55.496Z,32.48
2022-10-12T08:41:34.233Z,32.50
2022-10-12T08:44:52.335Z,32.56
2022-10-12T08:47:52.267Z,32.08
2022-10-12T08:50:30.815Z,32.11
2022-10-12T08:53:47.465Z,32.28
2022-10-12T08:56:21.715Z,32.51
2022-10-12T08:58:51.179Z,32.14
2022-10-12T09:01:38.691Z,31.78
2022-10-12T09:04:36.995Z,31.32
2022-10-12T09:07:27.255Z,30.38
2022-10-12T09:10:22.981Z,29.90
2022-10-12T09:13:08.781Z,30.04
2022-10-12T09:15:57.141Z,29.51
2022-10-12T09:18:49.730Z,28.94
2022-10-12T09:21:20.684Z,29.24
2022-10-12T09:23:49.187Z,29.37
2022-10-12T09:26:28.985Z,29.95
2022-10-12T09:28:58.378Z,30.77
2022-10-12T09:32:14.949Z,29.88
2022-10-12T09:34:42.660Z,29.67
2022-10-12T09:37:20.851Z,29.30
2022-10-12T09:39:48.410Z,29.28
2022-10-12T09:42:16.434Z,28.84
2022-10-12T09:45:01.533Z,28.63
2022-10-12T09:47:33.500Z,29.11
2022-10-12T09:50:07.286Z,28.51
2022-10-12T09:52:36.956Z,29.17
2022-10-12T09:55:23.226Z,28.80
2022-10-12T09:58:19.455Z,29.47
2022-10-12T10:01:06.338Z,30.09
2022-10-12T10:03:33.308Z,29.78
2022-10-12T10:06:05.463Z,29.73
2022-10-12T10:08:45.734Z,29.97
2022-10-12T10:11:31.607Z,30.44
2022-10-12T10:14:01.494Z,29.39
2022-10-12T10:16:30.516Z,29.52
2022-10-12T10:19:01.683Z,29.58
2022-10-12T10:21:40.230Z,29.06
2022-10-12T10:24:20.077Z,29.83
2022-10-12T10:26:55.442Z,29.71
2022-10-12T10:29:32.849Z,29.65
2022-10-12T10:32:24.357Z,29.57
2022-10-12T10:35:12.757Z,29.91
2022-10-12T10:37:56.690Z,30.01
2022-10-12T10:40:30.770Z,31.11
2022-10-12T10:43:04.104Z,30.70
2022-10-12T10:45:49.180Z,30.10
2022-10-12T10:48:20.881Z,30.88
2022-10-12T10:51:05.152Z,31.45
2022-10-12T10:53:45.565Z,31.42
2022-10-12T10:56:31.859Z,32.01
2022-10-12T10:59:14.944Z,31.56
2022-10-12T11:02:03.496Z,30.71
2022-10-12T11:04:39.802Z,30.28
2022-10-12T11:07:33.258Z,30.13
2022-10-12T11:10:06.243Z,30.84
2022-10-12T11:12:46.368Z,32.41
2022-10-12T11:15:23.743Z,33.08
2022-10-12T11:18:30.776Z,32.79
2022-10-12T11:21:29.875Z,33.24
2022-10-12T11:24:16.395Z,33.18
2022-10-12T11:27:31.676Z,33.35
2022-10-12T11:30:10.231Z,33.29
2022-10-12T11:32:56.308Z,33.40
2022-10-12T11:35:34.903Z,34.03
2022-10-12T11:38:15.185Z,33.32
2022-10-12T11:41:09.210Z,33.53
2022-10-12T11:44:13.242Z,33.64
2022-10-12T11:46:53.249Z,33.93
2022-10-12T11:49:44.576Z,33.71
2022-10-12T11:52:12.396Z,33.13
2022-10-12T11:55:17.201Z,33.55
2022-10-12T11:57:44.429Z,33.46
2022-10-12T12:00:29.888Z,34.76
2022-10-12T12:03:26.806Z,34.25
2022-10-12T12:05:53.870Z,34.61
2022-10-12T12:08:39.154Z,34.81
2022-10-12T12:11:26.235Z,34.94
2022-10-12T12:14:21.799Z,36.47
2022-10-12T12:16:49.818Z,36.56
2022-10-12T12:19:39.694Z,35.96
2022-10-12T12:22:23.638Z,36.54
2022-10-12T12:25:13.380Z,36.55
2022-10-12T12:28:00.504Z,36.26
2022-10-12T12:30:40.666Z,36.77
2022-10-12T12:33:30.970Z,38.36
2022-10-12T12:36:02.984Z,38.75
2022-10-12T12:38:46.248Z,38.73
2022-10-12T12:41:19.870Z,39.26
2022-10-12T12:43:58.098Z,39.29
2022-10-12T12:46:46.455Z,39.87
2022-10-12T12:49:48.921Z,40.27
2022-10-12T12:52:24.722Z,39.30
2022-10-12T12:55:20.214Z,39.65
2022-10-12T12:58:29.414Z,40.06
2022-10-12T13:01:27.879Z,40.51
2022-10-12T13:04:55.737Z,38.51
2022-10-12T13:07:52.912Z,40.51
2022-10-12T13:11:15.353Z,40.27
2022-10-12T13:13:59.667Z,41.50
2022-10-12T13:19:36.635Z,42.29
2022-10-12T13:22:13.466Z,42.16
2022-10-12T13:24:53.954Z,42.79
2022-10-12T13:27:49.173Z,42.97
2022-10-12T13:31:09.515Z,43.28
2022-10-12T13:33:56.142Z,44.11
2022-10-12T13:36:36.486Z,44.01
2022-10-12T13:39:21.168Z,44.48
2022-10-12T13:41:53.407Z,43.93
2022-10-12T13:44:28.334Z,43.98
2022-10-12T13:47:01.840Z,44.42
2022-10-12T13:49:35.245Z,44.30
2022-10-12T13:52:21.860Z,44.73
2022-10-12T13:54:50.423Z,44.94
2022-10-12T13:57:50.289Z,45.05
2022-10-12T14:00:17.294Z,45.51
2022-10-12T14:02:58.114Z,45.80
2022-10-12T14:05:28.108Z,46.25
2022-10-12T14:08:28.757Z,46.69
2022-10-12T14:10:58.431Z,46.55
2022-10-12T14:13:34.746Z,46.47
2022-10-12T14:16:04.720Z,47.38
2022-10-12T14:18:44.963Z,47.37
2022-10-12T14:21:18.627Z,47.34
2022-10-12T14:24:19.683Z,47.72
2022-10-12T14:26:56.991Z,48.29
2022-10-12T14:29:46.425Z,48.31
2022-10-12T14:32:13.188Z,48.90
2022-10-12T14:35:03.258Z,49.41
2022-10-12T14:37:30.761Z,50.15
2022-10-12T14:40:02.481Z,50.00
2022-10-12T14:42:35.713Z,49.91
2022-10-12T14:45:06.859Z,49.91
2022-10-12T14:47:39.270Z,49.86
2022-10-12T14:50:09.721Z,50.60
2022-10-12T14:52:43.952Z,50.82
2022-10-12T14:55:27.655Z,51.23
2022-10-12T14:57:55.100Z,52.15
2022-10-12T15:00:33.835Z,51.95
2022-10-12T15:03:01.624Z,51.89
2022-10-12T15:05:31.902Z,52.51
2022-10-12T15:08:00.761Z,52.28
2022-10-12T15:10:29.224Z,53.19
2022-10-12T15:12:56.162Z,53.08
2022-10-12T15:15:29.288Z,52.45
2022-10-12T15:17:57.227Z,53.78
2022-10-12T15:20:25.763Z,54.28
2022-10-12T15:22:52.794Z,54.44
2022-10-12T15:26:01.029Z,55.08
2022-10-12T15:28:29.868Z,55.57
2022-10-12T15:31:20.025Z,55.51
2022-10-12T15:33:47.067Z,56.36
2022-10-12T15:36:14.067Z,56.05
2022-10-12T15:38:41.003Z,56.26
2022-10-12T15:41:17.373Z,56.20
2022-10-12T15:43:44.307Z,56.34
2022-10-12T15:46:14.386Z,56.79
2022-10-12T15:48:41.821Z,57.39
2022-10-12T15:51:19.493Z,57.50
2022-10-12T15:53:46.560Z,58.39
2022-10-12T15:56:16.087Z,58.68
2022-10-12T15:58:43.565Z,58.74
2022-10-12T16:01:19.759Z,58.63
2022-10-12T16:03:47.950Z,59.58
2022-10-12T16:06:15.303Z,59.44
2022-10-12T16:08:42.550Z,59.32
2022-10-12T16:11:14.634Z,60.56
2022-10-12T16:13:48.011Z,60.28
2022-10-12T16:16:19.275Z,60.70
2022-10-12T16:18:46.187Z,61.23
2022-10-12T16:21:13.209Z,61.71
2022-10-12T16:23:41.099Z,61.90
2022-10-12T16:26:13.385Z,62.32
2022-10-12T16:28:40.960Z,61.72
2022-10-12T16:31:15.311Z,61.98
2022-10-12T16:33:42.364Z,62.83
2022-10-12T16:36:13.401Z,62.29
2022-10-12T16:38:41.013Z,62.34
2022-10-12T16:41:13.585Z,62.13
2022-10-12T16:43:40.889Z,62.19
2022-10-12T16:46:08.479Z,61.68
2022-10-12T16:48:36.350Z,62.88
2022-10-12T16:51:10.854Z,62.97
2022-10-12T16:53:38.151Z,62.88
2022-10-12T16:56:05.500Z,62.69
2022-10-12T16:58:33.046Z,62.37
2022-10-12T17:01:09.845Z,63.33
2022-10-12T17:03:36.880Z,63.06
2022-10-12T17:06:04.033Z,63.18
2022-10-12T17:08:35.682Z,63.31
2022-10-12T17:11:11.939Z,62.83
2022-10-12T17:13:43.135Z,62.32
2022-10-12T17:16:33.975Z,62.35
2022-10-12T17:19:01.188Z,63.41
2022-10-12T17:21:28.776Z,63.67
2022-10-12T17:24:00.247Z,63.76
2022-10-12T17:26:27.535Z,63.79
2022-10-12T17:28:54.834Z,64.23
2022-10-12T17:31:21.810Z,64.51
2022-10-12T17:33:49.310Z,63.58
2022-10-12T17:36:16.375Z,63.40
2022-10-12T17:38:43.310Z,63.64
2022-10-12T17:41:10.224Z,64.21
2022-10-12T17:43:37.154Z,63.89
2022-10-12T17:46:07.301Z,63.91
2022-10-12T17:48:34.555Z,64.25
2022-10-12T17:51:12.329Z,64.52
2022-10-12T17:53:40.093Z,65.06
2022-10-12T17:56:11.358Z,64.83
2022-10-12T17:58:38.344Z,64.41
2022-10-12T18:01:08.389Z,64.50
2022-10-12T18:03:35.752Z,64.05
2022-10-12T18:06:08.091Z,63.93
2022-10-12T18:08:35.656Z,64.54
2022-10-12T18:11:05.624Z,64.28
2022-10-12T18:13:34.360Z,64.45
2022-10-12T18:16:01.813Z,64.73
2022-10-12T18:18:29.237Z,64.62
2022-10-12T18:20:56.212Z,65.28
2022-10-12T18:23:23.158Z,64.97
2022-10-12T18:25:51.119Z,64.73
2022-10-12T18:28:18.259Z,65.43
2022-10-12T18:30:50.643Z,65.76
2022-10-12T18:33:17.957Z,65.69
2022-10-12T18:35:45.014Z,65.41
2022-10-12T18:38:11.975Z,65.11
2022-10-12T18:40:42.235Z,64.08
2022-10-12T18:43:10.374Z,64.49
2022-10-12T18:45:45.048Z,65.39
2022-10-12T18:48:13.108Z,66.46
2022-10-12T18:50:40.276Z,66.61
2022-10-12T18:53:07.348Z,65.79
2022-10-12T18:55:40.671Z,66.14
2022-10-12T18:58:07.679Z,67.08
2022-10-12T19:00:34.679Z,67.26
2022-10-12T19:03:01.659Z,67.32
2022-10-12T19:05:28.598Z,67.47
2022-10-12T19:07:55.546Z,67.88
2022-10-12T19:10:22.473Z,67.74
2022-10-12T19:12:49.415Z,67.47
2022-10-12T19:15:16.500Z,67.91
2022-10-12T19:17:43.451Z,68.87
2022-10-12T19:20:10.802Z,69.93
2022-10-12T19:22:38.242Z,69.62
2022-10-12T19:25:05.855Z,69.97
2022-10-12T19:27:32.804Z,70.38
2022-10-12T19:29:59.747Z,70.88
2022-10-12T19:32:26.685Z,71.68
2022-10-12T19:34:54.617Z,71.67
2022-10-12T19:37:21.668Z,72.07
2022-10-12T19:39:49.123Z,71.15
2022-10-12T19:42:16.322Z,71.18
2022-10-12T19:44:43.539Z,71.66
2022-10-12T19:47:10.605Z,71.73
2022-10-12T19:49:40.886Z,71.69
2022-10-12T19:52:10.109Z,71.71
2022-10-12T19:54:37.075Z,71.88
2022-10-12T19:57:04.248Z,73.09
2022-10-12T19:59:31.201Z,73.09
2022-10-12T20:01:58.172Z,73.83
2022-10-12T20:04:25.124Z,73.62
2022-10-12T20:06:52.072Z,73.70
2022-10-12T20:09:19.041Z,73.38
2022-10-12T20:11:45.969Z,73.21
2022-10-12T20:14:12.968Z,73.84
2022-10-12T20:16:40.139Z,73.38
2022-10-12T20:19:07.328Z,73.09
2022-10-12T20:21:36.481Z,74.62
2022-10-12T20:24:04.061Z,74.86
2022-10-12T20:26:31.106Z,74.29
2022-10-12T20:28:58.242Z,74.48
2022-10-12T20:31:27.463Z,74.10
2022-10-12T20:33:56.152Z,74.44
2022-10-12T20:36:26.598Z,74.75
2022-10-12T20:38:54.237Z,74.95
2022-10-12T20:41:21.945Z,74.82
2022-10-12T20:43:49.081Z,75.09
2022-10-12T20:46:18.372Z,76.33
2022-10-12T20:48:45.935Z,74.41
2022-10-12T20:51:35.917Z,75.00
2022-10-12T20:54:05.661Z,75.60
2022-10-12T20:56:33.949Z,76.14
2022-10-12T20:59:01.777Z,76.94
2022-10-12T21:01:29.308Z,77.38
2022-10-12T21:03:56.918Z,76.93
2022-10-12T21:06:25.060Z,77.35
2022-10-12T21:08:54.426Z,77.69
2022-10-12T21:11:22.149Z,77.94
2022-10-12T21:13:49.685Z,77.26
2022-10-12T21:16:16.877Z,77.31
2022-10-12T21:18:43.855Z,77.25
2022-10-12T21:21:16.212Z,78.52
2022-10-12T21:23:45.964Z,79.06
2022-10-12T21:26:17.379Z,79.12
2022-10-12T21:28:45.502Z,78.86
2022-10-12T21:31:13.793Z,79.43
2022-10-12T21:33:41.302Z,79.16
2022-10-12T21:36:19.249Z,79.97
2022-10-12T21:38:47.242Z,80.59
2022-10-12T21:41:16.636Z,80.60
2022-10-12T21:43:45.303Z,81.15
2022-10-12T21:46:17.906Z,81.30
2022-10-12T21:48:45.741Z,80.97
2022-10-12T21:51:13.179Z,80.23
2022-10-12T21:53:40.851Z,81.52
2022-10-12T21:56:18.658Z,82.36
2022-10-12T21:58:46.542Z,81.56
2022-10-12T22:01:17.488Z,81.98
2022-10-12T22:03:45.257Z,82.25
2022-10-12T22:06:18.425Z,82.03
2022-10-12T22:08:54.304Z,82.61
2022-10-12T22:11:21.840Z,82.90
2022-10-12T22:13:49.120Z,83.24
2022-10-12T22:16:18.588Z,83.14
2022-10-12T22:18:46.120Z,83.30
2022-10-12T22:21:16.758Z,83.74
2022-10-12T22:23:45.129Z,82.98
2022-10-12T22:26:17.612Z,83.90
2022-10-12T22:28:44.828Z,83.77
2022-10-12T22:31:14.446Z,83.32
2022-10-12T22:33:41.493Z,83.15
2022-10-12T22:36:11.211Z,84.02
2022-10-12T22:38:38.219Z,84.11
2022-10-12T22:41:15.245Z,84.83
2022-10-12T22:43:42.703Z,84.56
2022-10-12T22:46:10.186Z,85.49
2022-10-12T22:48:38.094Z,84.81
2022-10-12T22:51:06.596Z,85.09
2022-10-12T22:53:34.778Z,84.58
2022-10-12T22:56:13.198Z,84.84
2022-10-12T22:58:40.199Z,85.31
2022-10-12T23:01:13.006Z,85.79
2022-10-12T23:03:40.950Z,85.77
2022-10-12T23:06:09.182Z,85.45
2022-10-12T23:08:36.852Z,85.51
2022-10-12T23:11:10.616Z,85.57
2022-10-12T23:13:39.156Z,84.95
2022-10-12T23:16:19.706Z,84.98
2022-10-12T23:18:47.195Z,84.53
2022-10-12T23:21:17.399Z,84.90
2022-10-12T23:23:45.724Z,85.26
2022-10-12T23:26:21.961Z,85.31
2022-10-12T23:28:49.531Z,86.05
2022-10-12T23:31:23.097Z,85.83
2022-10-12T23:33:54.048Z,85.97
2022-10-12T23:36:21.033Z,85.54
2022-10-12T23:38:48.014Z,85.19
2022-10-12T23:41:15.118Z,84.81
2022-10-12T23:43:42.427Z,85.19
2022-10-12T23:46:12.175Z,85.27
2022-10-12T23:48:39.983Z,85.66
2022-10-12T23:51:09.178Z,85.78
2022-10-12T23:53:37.086Z,86.15
2022-10-12T23:56:06.575Z,86.07
2022-10-12T23:58:34.263Z,86.23
